Time;durP1;ratioP1;P1;durP2;ratioP2;P2;SDS_P1;SDS_P2;PMS_P1;PMS_P2;Temp;Humidity;BMP_temperature;BMP_pressure;BME280_temperature;BME280_humidity;BME280_pressure;Samples;Min_cycle;Max_cycle;Signal;HPM_P1;HPM_P2
2023/10/12 00:01:57;;;;;;;4.60;3.63;;;24.20;61.20;;;;;;4944103;28;86358;-88
2023/10/12 00:04:24;;;;;;;5.60;4.05;;;24.20;61.20;;;;;;4963629;28;86503;-86
2023/10/12 00:06:51;;;;;;;5.60;3.50;;;24.20;61.30;;;;;;4963774;28;86923;-87
2023/10/12 00:09:25;;;;;;;4.05;3.20;;;24.20;61.20;;;;;;4963801;28;86341;-88
2023/10/12 00:11:57;;;;;;;4.88;3.63;;;24.20;61.20;;;;;;4963461;28;86766;-87
2023/10/12 00:14:32;;;;;;;4.68;4.18;;;24.10;61.30;;;;;;4962866;28;86915;-88
2023/10/12 00:16:58;;;;;;;4.68;3.25;;;24.20;61.40;;;;;;4963742;28;86298;-87
2023/10/12 00:19:25;;;;;;;5.07;3.70;;;24.20;61.40;;;;;;4964132;28;85940;-88
2023/10/12 00:21:59;;;;;;;4.93;3.47;;;24.10;61.50;;;;;;4962178;28;86296;-87
2023/10/12 00:24:25;;;;;;;4.70;3.47;;;24.10;61.50;;;;;;4963178;28;87462;-87
2023/10/12 00:26:50;;;;;;;5.40;3.45;;;24.10;61.10;;;;;;4965193;28;86693;-87
2023/10/12 00:29:18;;;;;;;4.70;3.67;;;24.10;61.10;;;;;;4962356;28;86370;-87
2023/10/12 00:31:45;;;;;;;5.03;3.75;;;24.10;61.20;;;;;;4961496;28;86886;-85
2023/10/12 00:34:11;;;;;;;5.22;3.42;;;24.10;61.10;;;;;;4960439;28;90709;-89
2023/10/12 00:36:37;;;;;;;3.78;3.38;;;24.10;61.20;;;;;;4963038;28;86788;-88
2023/10/12 00:39:10;;;;;;;6.45;3.58;;;24.10;61.10;;;;;;4965320;28;86245;-87
2023/10/12 00:41:37;;;;;;;6.07;3.80;;;24.10;61.10;;;;;;4963384;28;86269;-87
2023/10/12 00:49:14;;;;;;;4.93;3.65;;;24.00;61.00;;;;;;4966630;28;87270;-87
2023/10/12 00:51:48;;;;;;;5.78;3.80;;;24.10;61.20;;;;;;4951729;28;86457;-88
2023/10/12 00:54:14;;;;;;;4.70;3.47;;;24.00;61.20;;;;;;4965272;28;87329;-88
2023/10/12 00:56:43;;;;;;;4.72;3.80;;;24.00;62.10;;;;;;4960904;28;88678;-87
2023/10/12 00:59:11;;;;;;;;;;;24.00;61.10;;;;;;4965017;28;90247;-87
2023/10/12 01:01:37;;;;;;;4.45;4.03;;;24.00;61.10;;;;;;4963714;28;86286;-87
2023/10/12 01:04:04;;;;;;;4.70;3.63;;;24.00;61.00;;;;;;4962530;28;87380;-86
2023/10/12 01:06:33;;;;;;;3.83;3.42;;;24.00;61.00;;;;;;4962102;28;87141;-87
2023/10/12 01:09:04;;;;;;;4.78;3.70;;;24.00;61.10;;;;;;4963494;28;86108;-87
2023/10/12 01:11:37;;;;;;;5.28;3.65;;;24.00;61.00;;;;;;4960366;28;85769;-86
2023/10/12 01:14:09;;;;;;;3.53;3.22;;;24.00;61.10;;;;;;4960950;28;86694;-87
2023/10/12 01:19:10;;;;;;;3.85;3.42;;;24.00;61.10;;;;;;4963105;28;85963;-88
2023/10/12 01:21:36;;;;;;;4.50;3.63;;;24.00;61.10;;;;;;4963166;28;85947;-89
2023/10/12 01:24:05;;;;;;;5.88;3.83;;;24.00;61.10;;;;;;4961901;28;89651;-87
2023/10/12 01:26:33;;;;;;;3.90;3.60;;;24.00;61.20;;;;;;4961179;28;88907;-86
2023/10/12 01:29:00;;;;;;;3.67;3.27;;;24.00;61.00;;;;;;4962717;28;86665;-86
2023/10/12 01:31:29;;;;;;;5.13;3.92;;;24.00;61.00;;;;;;4963565;28;86652;-87
2023/10/12 01:33:55;;;;;;;5.68;3.47;;;24.00;61.10;;;;;;4961852;28;85700;-87
2023/10/12 01:36:43;;;;;;;4.78;3.53;;;24.00;61.10;;;;;;4962977;28;86292;-87
2023/10/12 01:39:15;;;;;;;5.00;3.65;;;23.90;61.10;;;;;;4962330;28;86796;-88
2023/10/12 01:41:41;;;;;;;5.10;3.90;;;23.90;61.10;;;;;;4962949;28;86787;-89
2023/10/12 01:44:11;;;;;;;4.80;3.40;;;23.90;61.20;;;;;;4960221;28;89312;-88
2023/10/12 01:46:41;;;;;;;4.90;3.92;;;23.90;61.10;;;;;;4963355;28;86413;-87
2023/10/12 01:49:11;;;;;;;4.72;3.67;;;23.90;61.20;;;;;;4962970;28;86059;-87
2023/10/12 01:51:42;;;;;;;4.60;3.25;;;23.90;61.20;;;;;;4961274;28;86723;-87
2023/10/12 01:54:12;;;;;;;4.32;3.78;;;23.90;61.20;;;;;;4964216;28;86976;-88
2023/10/12 01:56:45;;;;;;;5.90;3.72;;;23.90;61.20;;;;;;4967578;28;89806;-88
2023/10/12 01:59:12;;;;;;;4.90;3.75;;;23.90;61.20;;;;;;4960551;28;86322;-88
2023/10/12 02:01:42;;;;;;;4.80;3.28;;;23.90;61.10;;;;;;4961790;28;85802;-86
2023/10/12 02:04:08;;;;;;;4.80;3.63;;;23.90;61.20;;;;;;4962144;28;86617;-87
2023/10/12 02:06:34;;;;;;;5.10;3.95;;;23.90;61.20;;;;;;4962808;28;86613;-87
2023/10/12 02:09:08;;;;;;;5.20;3.22;;;23.90;61.20;;;;;;4967237;28;86526;-86
2023/10/12 02:11:42;;;;;;;4.25;3.30;;;23.90;61.20;;;;;;4963829;28;92723;-87
2023/10/12 02:14:11;;;;;;;4.80;3.67;;;23.90;61.20;;;;;;4963952;28;89814;-86
2023/10/12 02:16:39;;;;;;;4.32;3.42;;;23.90;61.10;;;;;;4966184;28;86767;-89
2023/10/12 02:19:11;;;;;;;3.83;3.40;;;23.90;61.40;;;;;;4964007;28;86272;-88
2023/10/12 02:21:46;;;;;;;3.90;3.25;;;23.90;61.20;;;;;;4963897;28;86357;-87
2023/10/12 02:24:13;;;;;;;5.10;3.80;;;23.90;61.20;;;;;;4964253;28;89547;-87
2023/10/12 02:29:17;;;;;;;4.47;3.80;;;23.80;61.30;;;;;;4966026;28;86067;-88
2023/10/12 02:34:20;;;;;;;5.55;3.67;;;23.80;61.30;;;;;;4964551;28;85824;-87
2023/10/12 02:39:41;;;;;;;4.97;3.28;;;23.80;61.20;;;;;;4964420;28;86361;-87
2023/10/12 02:42:17;;;;;;;4.55;3.63;;;23.80;61.20;;;;;;4966034;28;86192;-88
2023/10/12 02:47:22;;;;;;;4.20;3.65;;;23.80;61.20;;;;;;4961230;28;86385;-87
2023/10/12 02:50:01;;;;;;;5.00;3.55;;;23.80;61.20;;;;;;4965827;28;86343;-87
2023/10/12 02:52:31;;;;;;;3.95;3.50;;;23.80;61.30;;;;;;4958574;28;86357;-87
2023/10/12 02:54:59;;;;;;;4.07;3.67;;;23.80;61.20;;;;;;4966118;28;86571;-89
2023/10/12 02:57:30;;;;;;;3.65;3.15;;;23.80;61.20;;;;;;4964785;28;86536;-88
2023/10/12 02:59:57;;;;;;;5.25;3.70;;;23.80;61.30;;;;;;4964625;28;86045;-87
2023/10/12 03:02:32;;;;;;;4.43;3.50;;;23.80;61.30;;;;;;4965106;28;86520;-86
2023/10/12 03:05:08;;;;;;;4.43;3.60;;;23.80;61.20;;;;;;4964783;28;86836;-86
2023/10/12 03:07:37;;;;;;;4.00;3.60;;;23.80;61.30;;;;;;4964988;28;86131;-86
2023/10/12 03:10:17;;;;;;;4.90;3.90;;;23.80;61.40;;;;;;4966544;28;86553;-88
2023/10/12 03:12:44;;;;;;;4.57;3.80;;;23.70;61.10;;;;;;4962959;28;86413;-86
2023/10/12 03:15:13;;;;;;;4.03;3.38;;;23.70;61.20;;;;;;4966196;28;87313;-87
2023/10/12 03:17:52;;;;;;;4.00;3.55;;;23.70;61.40;;;;;;4964507;28;90224;-87
2023/10/12 03:20:28;;;;;;;3.75;3.42;;;23.70;61.30;;;;;;4963874;28;86321;-88
2023/10/12 03:22:59;;;;;;;4.60;3.75;;;23.70;61.30;;;;;;4963856;28;86265;-87
2023/10/12 03:25:43;;;;;;;4.30;3.67;;;23.70;61.40;;;;;;4963331;28;90037;-87
2023/10/12 03:28:43;;;;;;;4.57;3.70;;;23.70;61.40;;;;;;4964222;28;86801;-89
2023/10/12 03:31:15;;;;;;;5.18;4.28;;;23.70;61.10;;;;;;4962851;28;86792;-88
2023/10/12 03:33:46;;;;;;;4.20;3.28;;;23.70;61.30;;;;;;4964501;28;86472;-88
2023/10/12 03:36:23;;;;;;;4.13;3.63;;;23.70;61.30;;;;;;4966111;28;86610;-87
2023/10/12 03:52:20;;;;;;;5.22;3.78;;;23.70;61.20;;;;;;4965407;28;86776;-87
2023/10/12 03:55:16;;;;;;;4.03;3.60;;;23.70;61.30;;;;;;4964145;28;87003;-87
2023/10/12 04:01:05;;;;;;;4.00;3.60;;;23.70;61.20;;;;;;4962944;28;86923;-86
2023/10/12 04:03:35;;;;;;;4.38;3.78;;;23.70;61.40;;;;;;4964076;28;86430;-88
2023/10/12 04:06:23;;;;;;;4.25;3.47;;;23.70;61.30;;;;;;4964021;28;86087;-86
2023/10/12 04:08:53;;;;;;;4.18;3.28;;;23.70;61.40;;;;;;4963023;28;93524;-87
2023/10/12 04:11:47;;;;;;;3.53;3.13;;;23.70;61.30;;;;;;4963452;28;86459;-86
2023/10/12 04:14:43;;;;;;;3.88;3.45;;;23.70;61.30;;;;;;4962971;28;86456;-86
2023/10/12 04:25:32;;;;;;;4.63;3.63;;;23.60;61.20;;;;;;4951251;28;85752;-87
2023/10/12 04:28:17;;;;;;;5.07;3.97;;;23.70;61.20;;;;;;4963462;28;86459;-87
2023/10/12 04:33:38;;;;;;;4.60;3.63;;;23.70;61.30;;;;;;4963967;28;87218;-86
2023/10/12 04:41:24;;;;;;;4.90;3.67;;;23.70;61.30;;;;;;4962669;28;86436;-88
2023/10/12 04:43:53;;;;;;;4.68;3.42;;;23.60;62.00;;;;;;4963311;28;86522;-87
2023/10/12 04:49:29;;;;;;;4.50;3.65;;;23.70;61.40;;;;;;4963494;28;86408;-88
2023/10/12 04:51:41;;;;;;;3.92;3.38;;;23.70;61.30;;;;;;4952408;28;88038;-87
2023/10/12 04:54:23;;;;;;;3.75;3.35;;;23.60;61.30;;;;;;4964038;28;86539;-86
2023/10/12 04:59:43;;;;;;;4.22;3.45;;;23.60;61.50;;;;;;4954456;28;86247;-88
2023/10/12 05:07:27;;;;;;;4.07;3.60;;;23.60;61.30;;;;;;4962597;28;86938;-88
2023/10/12 05:09:52;;;;;;;4.93;3.40;;;23.60;61.40;;;;;;4962216;28;86536;-87
2023/10/12 05:12:28;;;;;;;3.83;3.10;;;23.60;61.40;;;;;;4962615;28;86514;-86
2023/10/12 05:15:00;;;;;;;4.43;3.78;;;23.60;61.40;;;;;;4961210;28;93910;-87
2023/10/12 05:17:25;;;;;;;4.38;3.90;;;23.60;61.20;;;;;;4962004;28;85754;-87
2023/10/12 05:19:53;;;;;;;5.32;3.38;;;23.60;61.20;;;;;;4959403;28;85872;-87
2023/10/12 05:22:22;;;;;;;4.55;3.80;;;23.60;61.20;;;;;;4961486;28;87290;-86
2023/10/12 05:24:48;;;;;;;3.72;3.38;;;23.60;61.30;;;;;;4962691;28;86985;-87
2023/10/12 05:27:23;;;;;;;3.70;3.40;;;23.60;61.20;;;;;;4962847;28;86456;-89
2023/10/12 05:29:52;;;;;;;4.35;3.67;;;23.50;61.10;;;;;;4963520;28;86119;-87
2023/10/12 05:32:36;;;;;;;4.07;3.67;;;23.60;61.30;;;;;;4961723;28;86500;-87
2023/10/12 05:35:05;;;;;;;4.90;3.50;;;23.60;61.40;;;;;;4961949;28;86551;-86
2023/10/12 05:37:48;;;;;;;4.13;3.60;;;23.60;61.40;;;;;;4960976;28;85856;-87
2023/10/12 05:40:15;;;;;;;4.03;3.63;;;23.60;61.50;;;;;;4960016;28;86464;-87
2023/10/12 05:42:45;;;;;;;4.93;3.72;;;23.60;61.50;;;;;;4954592;28;89832;-87
2023/10/12 05:45:30;;;;;;;4.90;3.90;;;23.60;61.50;;;;;;4967024;28;86427;-86
2023/10/12 05:47:56;;;;;;;4.88;3.75;;;23.60;61.30;;;;;;4965429;28;87175;-87
2023/10/12 05:50:26;;;;;;;4.05;3.65;;;23.50;61.30;;;;;;4959939;28;86670;-87
2023/10/12 05:52:59;;;;;;;4.32;3.90;;;23.60;61.30;;;;;;4963939;28;86927;-85
2023/10/12 05:55:43;;;;;;;4.70;4.10;;;23.60;61.60;;;;;;4957433;28;89490;-86
2023/10/12 05:58:11;;;;;;;4.30;3.15;;;23.60;61.40;;;;;;4963953;28;86571;-88
2023/10/12 06:00:44;;;;;;;4.53;3.65;;;23.50;61.50;;;;;;4965442;28;86349;-87
2023/10/12 06:03:15;;;;;;;3.75;3.38;;;23.50;61.40;;;;;;4966628;28;86989;-87
2023/10/12 06:05:44;;;;;;;3.70;3.35;;;23.50;61.30;;;;;;4964170;28;89549;-86
2023/10/12 06:08:10;;;;;;;;;;;23.50;61.20;;;;;;4967123;28;86113;-87
2023/10/12 06:10:41;;;;;;;4.90;4.13;;;23.50;61.20;;;;;;4966710;28;86501;-86
2023/10/12 06:13:16;;;;;;;3.42;3.13;;;23.50;61.30;;;;;;4965567;28;88317;-87
2023/10/12 06:15:43;;;;;;;4.68;3.80;;;23.50;61.30;;;;;;4972068;28;89286;-86
2023/10/12 06:18:13;;;;;;;4.05;3.53;;;23.50;61.20;;;;;;4966665;28;86641;-88
2023/10/12 06:20:42;;;;;;;4.43;3.15;;;23.50;61.50;;;;;;4965685;28;86839;-86
2023/10/12 06:23:14;;;;;;;4.90;3.50;;;23.50;61.30;;;;;;4963481;28;89961;-86
2023/10/12 06:25:39;;;;;;;3.88;3.08;;;23.50;61.20;;;;;;4964602;28;86651;-87
2023/10/12 06:28:16;;;;;;;4.13;3.53;;;23.50;61.40;;;;;;4964314;28;86129;-87
2023/10/12 06:30:46;;;;;;;4.43;3.38;;;23.50;61.20;;;;;;4963649;28;86819;-85
2023/10/12 06:33:14;;;;;;;3.47;2.88;;;23.50;61.00;;;;;;4964746;28;89556;-86
2023/10/12 06:35:58;;;;;;;5.60;3.28;;;23.50;60.00;;;;;;4963182;28;86136;-86
2023/10/12 06:44:11;;;;;;;6.10;3.67;;;23.50;60.30;;;;;;4964373;28;86924;-85
2023/10/12 06:46:45;;;;;;;9.18;4.85;;;23.50;60.40;;;;;;4955022;28;86373;-86
2023/10/12 06:49:17;;;;;;;5.95;4.07;;;23.50;60.60;;;;;;4965456;28;85764;-85
2023/10/12 06:51:44;;;;;;;7.40;4.63;;;23.50;60.70;;;;;;4953368;28;86416;-86
2023/10/12 06:54:19;;;;;;;6.90;5.07;;;23.50;60.70;;;;;;4971473;28;86828;-84
2023/10/12 06:56:50;;;;;;;6.40;4.45;;;23.50;60.80;;;;;;4962962;28;93483;-84
2023/10/12 06:59:22;;;;;;;6.45;4.30;;;23.50;60.60;;;;;;4963185;28;86769;-86
2023/10/12 07:04:14;;;;;;;8.40;4.88;;;23.40;59.80;;;;;;4964639;28;86459;-85
2023/10/12 07:06:48;;;;;;;11.90;4.82;;;23.40;59.50;;;;;;4980026;28;87858;-85
2023/10/12 07:09:13;;;;;;;7.50;4.82;;;23.50;60.00;;;;;;4965957;28;86659;-84
2023/10/12 07:11:39;;;;;;;8.40;4.60;;;23.40;60.50;;;;;;4965726;28;86291;-86
2023/10/12 07:14:05;;;;;;;8.02;4.90;;;23.50;60.20;;;;;;4964429;28;86190;-85
2023/10/12 07:16:40;;;;;;;7.22;4.60;;;23.50;59.90;;;;;;4964536;28;86337;-84
2023/10/12 07:19:06;;;;;;;10.52;4.88;;;23.40;60.00;;;;;;4963226;28;86308;-84
2023/10/12 07:21:32;;;;;;;11.90;4.70;;;23.40;59.80;;;;;;4964986;28;86502;-86
2023/10/12 07:23:57;;;;;;;7.53;4.40;;;23.40;59.80;;;;;;4965271;28;86575;-84
2023/10/12 07:26:24;;;;;;;9.10;4.72;;;23.50;59.80;;;;;;4964552;28;86563;-84
2023/10/12 07:28:50;;;;;;;7.13;5.18;;;23.40;59.70;;;;;;4965019;28;86904;-84
2023/10/12 07:36:36;;;;;;;59.25;14.05;;;23.40;60.20;;;;;;4960510;28;86772;-85
2023/10/12 07:41:41;;;;;;;60.22;12.25;;;23.50;60.30;;;;;;4963284;28;86359;-86
2023/10/12 07:44:07;;;;;;;25.98;8.52;;;23.50;60.40;;;;;;4962982;28;86800;-85
2023/10/12 07:46:35;;;;;;;26.80;10.00;;;23.50;60.60;;;;;;4962112;28;86829;-85
2023/10/12 07:49:22;;;;;;;33.95;11.13;;;23.40;60.00;;;;;;4963428;28;86837;-85
2023/10/12 07:57:17;;;;;;;25.33;9.02;;;23.40;60.30;;;;;;4962888;28;87401;-85
2023/10/12 08:02:59;;;;;;;29.73;9.90;;;23.40;60.40;;;;;;4962101;28;86153;-84
2023/10/12 08:11:23;;;;;;;27.27;9.27;;;23.40;60.30;;;;;;4962686;28;92850;-85
2023/10/12 08:21:39;;;;;;;24.83;10.57;;;23.40;60.20;;;;;;4963583;28;87149;-86
2023/10/12 08:24:09;;;;;;;20.63;9.30;;;23.40;60.00;;;;;;4962416;28;86525;-84
2023/10/12 08:32:04;;;;;;;23.30;9.23;;;23.40;60.10;;;;;;4962674;28;86251;-85
2023/10/12 08:39:38;;;;;;;18.63;9.15;;;23.40;60.10;;;;;;4952414;28;87044;-85
2023/10/12 08:44:50;;;;;;;23.50;8.30;;;23.40;60.20;;;;;;4963939;28;86193;-84
2023/10/12 08:47:27;;;;;;;20.58;9.23;;;23.40;60.40;;;;;;4964217;28;87328;-85
2023/10/12 08:49:53;;;;;;;20.67;8.02;;;23.50;60.20;;;;;;4962914;28;87513;-85
2023/10/12 08:52:29;;;;;;;20.35;6.93;;;23.40;60.30;;;;;;4963347;28;86380;-84
2023/10/12 08:55:13;;;;;;;20.08;9.02;;;23.40;60.00;;;;;;4962251;28;86085;-85
2023/10/12 08:57:55;;;;;;;20.77;8.30;;;23.40;60.20;;;;;;4960929;28;86579;-83
2023/10/12 09:03:05;;;;;;;16.45;7.18;;;23.40;59.80;;;;;;4964387;28;86309;-82
2023/10/12 09:05:34;;;;;;;18.70;7.25;;;23.40;59.40;;;;;;4963125;28;86154;-85
2023/10/12 09:13:28;;;;;;;19.17;7.90;;;23.40;59.80;;;;;;4963779;28;85771;-87
2023/10/12 09:15:55;;;;;;;14.40;6.03;;;23.50;59.90;;;;;;4963332;28;86708;-85
2023/10/12 09:18:29;;;;;;;16.77;5.88;;;23.50;58.90;;;;;;4965025;28;86346;-85
2023/10/12 09:31:48;;;;;;;13.65;6.22;;;23.50;59.90;;;;;;4963897;28;86426;-85
2023/10/12 09:36:38;;;;;;;14.50;7.30;;;23.50;60.20;;;;;;4953213;28;86178;-84
2023/10/12 09:39:11;;;;;;;16.85;6.90;;;23.50;60.20;;;;;;4969097;28;86416;-85
2023/10/12 09:41:43;;;;;;;15.73;7.20;;;23.50;60.30;;;;;;4960546;28;89155;-84
2023/10/12 09:44:12;;;;;;;17.98;6.53;;;23.50;60.60;;;;;;4946850;28;87177;-83
2023/10/12 09:46:49;;;;;;;16.20;6.47;;;23.50;60.60;;;;;;4962555;28;86442;-84
2023/10/12 09:49:29;;;;;;;12.00;5.53;;;23.50;60.70;;;;;;4962623;28;86466;-87
2023/10/12 09:51:59;;;;;;;13.85;6.82;;;23.50;60.20;;;;;;4962216;28;86393;-85
2023/10/12 09:54:45;;;;;;;17.60;6.30;;;23.50;60.20;;;;;;4961727;28;85725;-85
2023/10/12 09:57:50;;;;;;;17.98;6.70;;;23.50;60.50;;;;;;4962938;28;86011;-86
2023/10/12 10:03:08;;;;;;;11.73;5.93;;;23.50;60.70;;;;;;4960932;28;90977;-85
2023/10/12 10:06:03;;;;;;;11.40;6.00;;;23.60;60.80;;;;;;4962807;28;89475;-86
2023/10/12 10:08:32;;;;;;;15.48;7.78;;;23.50;60.70;;;;;;4960671;28;86705;-85
2023/10/12 10:10:58;;;;;;;11.60;6.10;;;23.60;60.90;;;;;;4961780;28;86790;-84
2023/10/12 10:13:46;;;;;;;10.32;5.70;;;23.60;60.50;;;;;;4961441;28;86603;-84
2023/10/12 10:16:17;;;;;;;10.02;6.00;;;23.50;60.60;;;;;;4961308;28;86395;-83
2023/10/12 10:18:56;;;;;;;13.02;6.25;;;23.50;60.70;;;;;;4962333;28;85968;-85
2023/10/12 10:21:30;;;;;;;;;;;23.60;60.90;;;;;;4963025;28;86859;-84
2023/10/12 10:24:00;;;;;;;12.27;6.18;;;23.60;60.80;;;;;;4964026;28;86359;-85
2023/10/12 10:26:34;;;;;;;10.65;5.72;;;23.60;61.00;;;;;;4960679;28;86688;-87
2023/10/12 10:29:06;;;;;;;10.55;5.78;;;23.60;61.20;;;;;;4962815;28;87145;-91
2023/10/12 10:31:36;;;;;;;15.68;6.10;;;23.50;60.90;;;;;;4963804;28;89315;-83
2023/10/12 10:34:07;;;;;;;15.23;6.13;;;23.50;60.80;;;;;;4951633;28;87805;-86
2023/10/12 10:36:34;;;;;;;12.70;6.05;;;23.50;60.90;;;;;;4968065;28;86650;-84
2023/10/12 10:39:50;;;;;;;12.38;5.72;;;23.60;60.80;;;;;;4965222;28;85985;-86
2023/10/12 10:44:41;;;;;;;16.08;5.70;;;23.50;60.40;;;;;;4964083;28;86247;-82
2023/10/12 10:47:09;;;;;;;;;;;23.60;60.90;;;;;;4963847;28;86378;-83
2023/10/12 10:49:35;;;;;;;14.13;6.20;;;23.50;60.70;;;;;;4964379;28;86879;-85
2023/10/12 10:54:37;;;;;;;10.95;5.10;;;23.60;60.90;;;;;;4964574;28;86186;-83
2023/10/12 10:57:14;;;;;;;;;;;23.60;60.90;;;;;;4966462;28;86002;-84
2023/10/12 10:59:42;;;;;;;9.93;5.00;;;23.60;60.50;;;;;;4963718;28;86448;-83
2023/10/12 11:02:11;;;;;;;12.73;4.90;;;23.60;60.70;;;;;;4963009;28;90818;-84
2023/10/12 11:07:11;;;;;;;14.10;6.25;;;23.60;60.80;;;;;;4964121;28;86775;-84
2023/10/12 11:12:40;;;;;;;10.32;4.97;;;23.60;60.80;;;;;;4966258;28;86005;-86
2023/10/12 11:15:11;;;;;;;12.30;5.93;;;23.60;60.80;;;;;;4965063;28;90244;-83
2023/10/12 11:17:49;;;;;;;10.45;5.28;;;23.60;60.50;;;;;;4964529;28;85929;-85
2023/10/12 11:20:27;;;;;;;10.83;5.33;;;23.50;60.30;;;;;;4964144;28;86226;-86
2023/10/12 11:22:53;;;;;;;8.85;5.32;;;23.50;60.70;;;;;;4964994;28;86289;-83
2023/10/12 11:25:20;;;;;;;9.07;4.85;;;23.50;60.40;;;;;;4962545;28;86779;-83
2023/10/12 11:27:45;;;;;;;10.32;4.78;;;23.50;60.60;;;;;;4962481;28;86280;-86
2023/10/12 11:32:53;;;;;;;10.80;5.80;;;23.50;60.50;;;;;;4963243;28;86270;-88
2023/10/12 11:35:32;;;;;;;8.77;4.90;;;23.50;60.60;;;;;;4964483;28;86366;-83
2023/10/12 11:37:58;;;;;;;8.73;5.15;;;23.50;60.40;;;;;;4964183;28;86547;-83
2023/10/12 11:40:30;;;;;;;10.32;5.60;;;23.50;60.20;;;;;;4964618;28;85777;-88
2023/10/12 11:42:57;;;;;;;9.13;4.47;;;23.50;60.40;;;;;;4964166;28;87739;-84
2023/10/12 11:45:32;;;;;;;7.50;4.63;;;23.50;60.10;;;;;;4963877;28;89017;-86
2023/10/12 11:48:15;;;;;;;9.93;4.93;;;23.50;59.50;;;;;;4965473;28;86252;-86
2023/10/12 11:50:40;;;;;;;10.75;5.90;;;23.50;60.50;;;;;;4962262;28;86827;-85
2023/10/12 11:53:06;;;;;;;8.35;5.25;;;23.50;60.40;;;;;;4963455;28;86449;-86
2023/10/12 11:55:32;;;;;;;11.63;5.47;;;23.50;60.50;;;;;;4963036;28;86435;-86
2023/10/12 11:57:59;;;;;;;9.80;4.85;;;23.50;60.60;;;;;;4962177;28;85974;-83
2023/10/12 12:00:36;;;;;;;7.40;5.15;;;23.60;60.30;;;;;;4963658;28;86252;-82
2023/10/12 12:03:03;;;;;;;9.63;5.55;;;23.60;60.50;;;;;;4963144;28;86896;-83
2023/10/12 12:05:30;;;;;;;9.85;5.50;;;23.50;60.40;;;;;;4964292;28;86841;-84
2023/10/12 12:08:13;;;;;;;10.20;5.22;;;23.60;60.60;;;;;;4962615;28;86767;-86
2023/10/12 12:11:03;;;;;;;12.13;5.00;;;23.60;60.30;;;;;;4963264;28;86034;-83
2023/10/12 12:13:29;;;;;;;9.50;5.03;;;23.60;60.50;;;;;;4963687;28;86896;-84
2023/10/12 12:15:57;;;;;;;10.95;5.07;;;23.60;60.40;;;;;;4962314;28;86224;-84
2023/10/12 12:18:23;;;;;;;11.40;6.22;;;23.60;60.50;;;;;;4964190;28;86263;-83
2023/10/12 12:20:52;;;;;;;14.02;5.28;;;23.60;60.50;;;;;;4963628;28;86239;-83
2023/10/12 12:23:19;;;;;;;10.10;4.97;;;23.60;60.50;;;;;;4964457;28;86581;-84
2023/10/12 12:25:45;;;;;;;7.53;4.93;;;23.60;60.40;;;;;;4962937;28;86819;-83
2023/10/12 12:28:15;;;;;;;8.57;4.72;;;23.60;61.30;;;;;;4963335;28;87684;-84
2023/10/12 12:30:55;;;;;;;9.95;5.20;;;23.60;60.50;;;;;;4963350;28;86529;-83
2023/10/12 12:33:25;;;;;;;11.23;4.60;;;23.60;60.40;;;;;;4957590;28;89614;-84
2023/10/12 12:36:00;;;;;;;8.35;5.50;;;23.60;60.50;;;;;;4964411;28;87113;-83
2023/10/12 12:38:44;;;;;;;8.23;4.68;;;23.60;60.50;;;;;;4963855;28;86894;-84
2023/10/12 12:41:18;;;;;;;11.13;4.97;;;23.60;60.40;;;;;;4962584;28;86548;-83
2023/10/12 12:43:47;;;;;;;9.25;4.88;;;23.60;60.50;;;;;;4961507;28;87673;-83
2023/10/12 12:46:13;;;;;;;7.28;5.57;;;23.60;60.50;;;;;;4961891;28;87407;-83
2023/10/12 12:48:40;;;;;;;9.18;5.10;;;23.60;60.50;;;;;;4963382;28;86689;-86
2023/10/12 12:51:23;;;;;;;9.98;5.32;;;23.60;60.60;;;;;;4962800;28;86459;-84
2023/10/12 12:53:50;;;;;;;11.50;5.53;;;23.60;60.60;;;;;;4962823;28;91008;-84
2023/10/12 12:56:17;;;;;;;8.57;4.95;;;23.50;60.50;;;;;;4961616;28;86310;-83
2023/10/12 12:58:47;;;;;;;10.52;5.80;;;23.50;60.80;;;;;;4962057;28;86579;-83
2023/10/12 13:01:18;;;;;;;10.32;5.63;;;23.60;60.90;;;;;;4960708;28;86415;-83
2023/10/12 13:03:45;;;;;;;12.45;5.25;;;23.50;61.10;;;;;;4963115;28;87910;-83
2023/10/12 13:06:12;;;;;;;14.18;5.50;;;23.50;61.10;;;;;;4961790;28;86545;-84
2023/10/12 13:08:38;;;;;;;10.55;6.57;;;23.50;61.10;;;;;;4964029;28;86478;-90
2023/10/12 13:11:04;;;;;;;9.77;5.72;;;23.50;61.20;;;;;;4962486;28;86271;-83
2023/10/12 13:13:35;;;;;;;12.50;5.53;;;23.50;61.10;;;;;;4963584;28;87612;-83
2023/10/12 13:16:11;;;;;;;10.80;5.20;;;23.50;61.20;;;;;;4962831;28;86671;-84
2023/10/12 13:18:38;;;;;;;10.07;5.47;;;23.60;61.30;;;;;;4963070;28;86515;-84
2023/10/12 13:21:07;;;;;;;11.57;5.57;;;23.60;61.30;;;;;;4963046;28;86568;-85
2023/10/12 13:23:33;;;;;;;12.38;6.20;;;23.50;61.10;;;;;;4961731;28;86675;-86
2023/10/12 13:26:07;;;;;;;9.93;5.70;;;23.50;61.20;;;;;;4961749;28;86507;-84
2023/10/12 13:28:33;;;;;;;13.23;6.22;;;23.50;61.30;;;;;;4962292;28;86146;-84
2023/10/12 13:30:59;;;;;;;9.48;5.03;;;23.50;61.40;;;;;;4953192;28;86282;-86
2023/10/12 13:33:27;;;;;;;11.68;5.82;;;23.50;61.30;;;;;;4968539;28;86872;-84
2023/10/12 13:35:56;;;;;;;10.75;5.20;;;23.50;61.60;;;;;;4962760;28;87042;-84
2023/10/12 13:38:22;;;;;;;11.38;5.50;;;23.50;61.50;;;;;;4962403;28;85821;-85
2023/10/12 13:40:49;;;;;;;8.25;5.05;;;23.50;61.40;;;;;;4962491;28;85930;-88
2023/10/12 13:43:15;;;;;;;9.98;5.47;;;23.50;61.50;;;;;;4963922;28;86937;-90
2023/10/12 13:45:47;;;;;;;12.90;5.43;;;23.60;62.10;;;;;;4961084;28;87717;-89
2023/10/12 13:48:21;;;;;;;10.45;5.70;;;23.50;61.50;;;;;;4962101;28;87085;-89
2023/10/12 13:51:04;;;;;;;12.13;5.65;;;23.50;61.80;;;;;;4964198;28;86441;-91
2023/10/12 13:53:36;;;;;;;13.15;5.90;;;23.50;61.80;;;;;;4963910;28;87217;-87
2023/10/12 13:56:08;;;;;;;14.63;5.93;;;23.50;61.80;;;;;;4963108;28;86315;-88
2023/10/12 13:58:39;;;;;;;14.43;6.22;;;23.50;61.70;;;;;;4962852;28;86127;-84
2023/10/12 14:01:13;;;;;;;16.48;6.75;;;23.50;61.90;;;;;;4962025;28;86258;-84
2023/10/12 14:03:41;;;;;;;45.78;13.23;;;23.50;62.10;;;;;;4963287;28;88333;-85
2023/10/12 14:06:07;;;;;;;50.50;16.52;;;23.50;62.30;;;;;;4967083;28;86683;-85
2023/10/12 14:08:40;;;;;;;38.35;13.32;;;23.50;62.70;;;;;;4965103;28;86601;-87
2023/10/12 14:11:06;;;;;;;38.10;13.55;;;23.50;62.60;;;;;;4965750;28;86393;-84
2023/10/12 14:13:33;;;;;;;59.40;19.67;;;23.50;62.80;;;;;;4966094;28;86648;-86
2023/10/12 14:15:59;;;;;;;44.78;15.32;;;23.50;63.20;;;;;;4966682;28;86506;-86
2023/10/12 14:18:28;;;;;;;63.63;20.10;;;23.70;63.20;;;;;;4967593;28;86175;-86
2023/10/12 14:20:55;;;;;;;69.13;24.67;;;23.80;62.90;;;;;;4969211;28;86979;-87
2023/10/12 14:23:25;;;;;;;68.43;26.48;;;23.70;62.80;;;;;;4973344;28;88082;-87
2023/10/12 14:25:51;;;;;;;71.60;24.63;;;23.70;62.90;;;;;;4969699;28;87906;-88
2023/10/12 14:28:17;;;;;;;61.42;23.50;;;23.70;63.20;;;;;;4961450;28;87203;-86
2023/10/12 14:30:47;;;;;;;63.65;23.25;;;23.70;63.50;;;;;;4968817;28;87060;-87
2023/10/12 14:33:25;;;;;;;62.65;22.52;;;23.60;63.90;;;;;;4968246;28;89422;-85
2023/10/12 14:35:51;;;;;;;68.35;25.95;;;23.60;64.30;;;;;;4969873;28;93305;-86
2023/10/12 14:38:18;;;;;;;65.28;22.50;;;23.60;64.40;;;;;;4972727;28;86798;-86
2023/10/12 14:40:45;;;;;;;65.78;22.45;;;23.60;64.90;;;;;;4971161;28;86771;-87
2023/10/12 14:43:12;;;;;;;65.55;23.63;;;23.60;65.10;;;;;;4969577;28;90293;-88
2023/10/12 14:45:48;;;;;;;56.25;20.08;;;23.60;65.10;;;;;;4969024;28;86289;-86
2023/10/12 14:48:16;;;;;;;54.92;21.55;;;23.60;65.50;;;;;;4969481;28;86323;-86
2023/10/12 14:50:47;;;;;;;55.65;21.92;;;23.60;65.60;;;;;;4969474;28;86112;-87
2023/10/12 14:53:15;;;;;;;55.45;21.08;;;23.50;65.50;;;;;;4968765;28;87495;-84
2023/10/12 14:55:44;;;;;;;59.78;21.58;;;23.60;65.80;;;;;;4968104;28;85967;-87
2023/10/12 14:58:13;;;;;;;34.35;12.55;;;23.60;65.40;;;;;;4969639;28;92397;-86
2023/10/12 15:00:45;;;;;;;36.90;13.85;;;23.60;63.50;;;;;;4967543;28;86198;-85
2023/10/12 15:03:24;;;;;;;56.67;18.00;;;23.50;63.20;;;;;;4969614;28;89600;-86
2023/10/12 15:06:01;;;;;;;46.83;18.80;;;23.50;64.00;;;;;;4968562;28;90854;-88
2023/10/12 15:08:27;;;;;;;50.33;19.80;;;23.60;64.80;;;;;;4963656;28;86433;-88
2023/10/12 15:10:56;;;;;;;49.85;19.98;;;23.60;65.90;;;;;;4961538;28;86742;-88
2023/10/12 15:13:25;;;;;;;49.28;19.40;;;23.50;66.00;;;;;;4961894;28;86278;-89
2023/10/12 15:15:53;;;;;;;43.55;18.10;;;23.50;65.60;;;;;;4962167;28;86902;-88
2023/10/12 15:18:23;;;;;;;52.70;18.95;;;23.60;65.90;;;;;;4960245;28;86636;-88
2023/10/12 15:20:49;;;;;;;48.22;19.63;;;23.50;65.70;;;;;;4962676;28;87405;-87
2023/10/12 15:23:17;;;;;;;48.88;18.05;;;23.50;65.90;;;;;;4960966;28;89501;-89
2023/10/12 15:25:44;;;;;;;47.20;18.50;;;23.60;66.10;;;;;;4962216;28;86835;-87
2023/10/12 15:28:11;;;;;;;53.33;18.65;;;23.50;66.00;;;;;;4962564;28;86424;-88
2023/10/12 15:30:42;;;;;;;47.05;19.10;;;23.60;66.20;;;;;;4950390;28;86693;-89
2023/10/12 15:33:07;;;;;;;45.75;18.45;;;23.60;66.10;;;;;;4968608;28;86279;-88
2023/10/12 15:35:33;;;;;;;50.42;18.80;;;23.50;65.80;;;;;;4962432;28;86026;-88